Woodgate — D5BX7 — position and weather

sailwx.info

Track history (hours):
 
Tides and Currents Weather Stations Pressure Air Temp Water Temp Dewpoint Dewpoint Depression Visibility Wind Speed Wind Dir Waves Ship Positions

Woodgate

Last reported at 2015-Jan-25 14:34 UTC. Time now 2015-Jan-30 23:27 UTC.
Position N 31°33' W 116°50'.

Length 169 m; draft 5.7 m.

Type: Cargo ship. MMSI: 636015627.

Date/timePositionNaut miles runAvg speedWind from/ knotsBaromVisibWave heightAir tempDewpointWater temp
2015-Jan-25 14:34N 31°33' W 116°50'1414.3
2015-Jan-25 13:33N 31°19' W 116°50'1414.2
2015-Jan-25 12:33N 31°05' W 116°50'1514.2
2015-Jan-25 11:32N 30°50' W 116°50'  
2015-Jan-17 09:33N 26°18' W 118°05'14012.5
2015-Jan-16 22:22N 27°55' W 119°59'1012.4
2015-Jan-16 21:34N 28°01' W 120°07'1212.2
2015-Jan-16 20:34N 28°10' W 120°17'3812.3
2015-Jan-16 17:27N 28°36' W 120°49'11512.7
2015-Jan-16 08:26N 29°55' W 122°24'5012.6
2015-Jan-16 04:31N 30°35' W 122°57'1312.9
2015-Jan-16 03:31N 30°46' W 123°06'1312.8
2015-Jan-16 02:32N 30°57' W 123°14'9212.8
2015-Jan-15 19:21N 32°13' W 124°14'1013.1
2015-Jan-15 18:33N 32°22' W 124°21'1514.0
2015-Jan-15 17:29N 32°34' W 124°31'1413.9
2015-Jan-15 16:28N 32°46' W 124°40'  
Track history (hours):
 
Tides and Currents Weather Stations Pressure Air Temp Water Temp Dewpoint Dewpoint Depression Visibility Wind Speed Wind Dir Waves Ship Positions

Woodgate

Last reported at 2015-Jan-25 14:34 UTC. Time now 2015-Jan-30 23:27 UTC.
Position N 31°33' W 116°50'.

Length 169 m; draft 5.7 m.

Type: Cargo ship. MMSI: 636015627.

Date/timePositionNaut miles runAvg speedWind from/ knotsBaromVisibWave heightAir tempDewpointWater temp
2015-Jan-25 14:34N 31°33' W 116°50'1414.3
2015-Jan-25 13:33N 31°19' W 116°50'1414.2
2015-Jan-25 12:33N 31°05' W 116°50'1514.2
2015-Jan-25 11:32N 30°50' W 116°50'  
2015-Jan-17 09:33N 26°18' W 118°05'14012.5
2015-Jan-16 22:22N 27°55' W 119°59'1012.4
2015-Jan-16 21:34N 28°01' W 120°07'1212.2
2015-Jan-16 20:34N 28°10' W 120°17'3812.3
2015-Jan-16 17:27N 28°36' W 120°49'11512.7
2015-Jan-16 08:26N 29°55' W 122°24'5012.6
2015-Jan-16 04:31N 30°35' W 122°57'1312.9
2015-Jan-16 03:31N 30°46' W 123°06'1312.8
2015-Jan-16 02:32N 30°57' W 123°14'9212.8
2015-Jan-15 19:21N 32°13' W 124°14'1013.1
2015-Jan-15 18:33N 32°22' W 124°21'1514.0
2015-Jan-15 17:29N 32°34' W 124°31'1413.9
2015-Jan-15 16:28N 32°46' W 124°40'  

Dump ship's entire track history